createdAt,value
2017-12-01T00:00:18.401Z,996.11
2017-12-01T00:01:18.394Z,996.14
2017-12-01T00:02:18.388Z,996.13
2017-12-01T00:03:18.380Z,996.18
2017-12-01T00:04:18.386Z,996.15
2017-12-01T00:05:18.367Z,996.18
2017-12-01T00:06:18.361Z,996.14
2017-12-01T00:07:18.352Z,996.13
2017-12-01T00:08:18.345Z,996.18
2017-12-01T00:09:18.339Z,996.15
2017-12-01T00:10:18.332Z,996.15
2017-12-01T00:11:18.325Z,996.23
2017-12-01T00:12:18.320Z,996.18
2017-12-01T00:13:18.310Z,996.19
2017-12-01T00:14:18.305Z,996.20
2017-12-01T00:15:18.297Z,996.22
2017-12-01T00:16:18.290Z,996.23
2017-12-01T00:17:18.285Z,996.26
2017-12-01T00:18:18.276Z,996.26
2017-12-01T00:19:18.269Z,996.28
2017-12-01T00:20:18.263Z,996.27
2017-12-01T00:21:18.263Z,996.27
2017-12-01T00:22:18.250Z,996.28
2017-12-01T00:23:18.243Z,996.30
2017-12-01T00:24:18.235Z,996.30
2017-12-01T00:25:18.228Z,996.31
2017-12-01T00:26:18.222Z,996.34
2017-12-01T00:27:18.214Z,996.33
2017-12-01T00:28:18.207Z,996.31
2017-12-01T00:29:18.201Z,996.32
2017-12-01T00:30:18.193Z,996.34
2017-12-01T00:31:18.188Z,996.34
2017-12-01T00:32:18.179Z,996.37
2017-12-01T00:33:18.172Z,996.40
2017-12-01T00:34:18.166Z,996.36
2017-12-01T00:35:18.158Z,996.41
2017-12-01T00:36:18.152Z,996.38
2017-12-01T00:37:18.144Z,996.41
2017-12-01T00:38:18.138Z,996.43
2017-12-01T00:39:18.132Z,996.44
2017-12-01T00:40:18.123Z,996.44
2017-12-01T00:41:18.116Z,996.51
2017-12-01T00:42:18.110Z,996.49
2017-12-01T00:43:18.104Z,996.52
2017-12-01T00:44:18.097Z,996.54
2017-12-01T00:45:18.088Z,996.56
2017-12-01T00:46:18.081Z,996.56
2017-12-01T00:47:18.074Z,996.55
2017-12-01T00:48:18.066Z,996.58
2017-12-01T00:49:18.060Z,996.57
2017-12-01T00:50:18.055Z,996.57
2017-12-01T00:51:18.048Z,996.58
2017-12-01T00:52:18.038Z,996.60
2017-12-01T00:53:18.031Z,996.61
2017-12-01T00:54:18.024Z,996.66
2017-12-01T00:55:18.017Z,996.65
2017-12-01T00:56:18.009Z,996.69
2017-12-01T00:57:18.003Z,996.65
2017-12-01T00:58:17.997Z,996.69
2017-12-01T00:59:17.990Z,996.75
2017-12-01T01:00:17.982Z,996.73
2017-12-01T01:01:17.974Z,996.74
2017-12-01T01:02:17.969Z,996.75
2017-12-01T01:03:17.961Z,996.75
2017-12-01T01:04:17.953Z,996.78
2017-12-01T01:05:17.946Z,996.83
2017-12-01T01:06:17.940Z,996.83
2017-12-01T01:07:17.934Z,996.81
2017-12-01T01:08:17.925Z,996.84
2017-12-01T01:09:17.926Z,996.83
2017-12-01T01:10:17.920Z,996.85
2017-12-01T01:11:17.905Z,996.82
2017-12-01T01:12:17.898Z,996.89
2017-12-01T01:13:17.890Z,996.85
2017-12-01T01:14:17.935Z,996.90
2017-12-01T01:15:17.877Z,996.89
2017-12-01T01:16:17.870Z,996.96
2017-12-01T01:17:17.862Z,996.91
2017-12-01T01:18:17.854Z,996.93
2017-12-01T01:19:17.848Z,996.97
2017-12-01T01:20:17.841Z,997.00
2017-12-01T01:21:17.834Z,997.01
2017-12-01T01:22:17.828Z,997.03
2017-12-01T01:23:17.821Z,996.99
2017-12-01T01:24:17.812Z,997.06
2017-12-01T01:25:17.805Z,997.03
2017-12-01T01:26:17.798Z,997.06
2017-12-01T01:27:17.792Z,997.09
2017-12-01T01:28:17.783Z,997.10
2017-12-01T01:29:17.778Z,997.13
2017-12-01T01:30:17.773Z,997.15
2017-12-01T01:31:17.764Z,997.18
2017-12-01T01:32:17.756Z,997.15
2017-12-01T01:33:17.748Z,997.16
2017-12-01T01:34:17.741Z,997.20
2017-12-01T01:35:17.733Z,997.22
2017-12-01T01:36:17.728Z,997.23
2017-12-01T01:37:17.719Z,997.26
2017-12-01T01:38:17.711Z,997.25
2017-12-01T01:39:17.705Z,997.23
2017-12-01T01:40:17.697Z,997.29
2017-12-01T01:41:17.692Z,997.26
2017-12-01T01:42:17.683Z,997.26
2017-12-01T01:43:17.676Z,997.27
2017-12-01T01:44:17.668Z,997.27
2017-12-01T01:45:17.665Z,997.27
2017-12-01T01:46:17.655Z,997.28
2017-12-01T01:47:17.648Z,997.23
2017-12-01T01:48:17.641Z,997.26
2017-12-01T01:49:17.633Z,997.28
2017-12-01T01:50:17.626Z,997.24
2017-12-01T01:51:17.619Z,997.27
2017-12-01T01:52:17.613Z,997.26
2017-12-01T01:53:17.605Z,997.32
2017-12-01T01:54:17.600Z,997.30
2017-12-01T01:55:17.591Z,997.32
2017-12-01T01:56:17.582Z,997.34
2017-12-01T01:57:17.578Z,997.38
2017-12-01T01:58:17.570Z,997.41
2017-12-01T01:59:17.563Z,997.40
2017-12-01T02:00:17.554Z,997.43
2017-12-01T02:01:17.549Z,997.44
2017-12-01T02:02:17.540Z,997.43
2017-12-01T02:03:17.532Z,997.43
2017-12-01T02:04:17.524Z,997.45
2017-12-01T02:05:17.517Z,997.46
2017-12-01T02:06:17.512Z,997.48
2017-12-01T02:07:17.503Z,997.49
2017-12-01T02:08:17.495Z,997.51
2017-12-01T02:09:17.490Z,997.50
2017-12-01T02:10:17.481Z,997.54
2017-12-01T02:11:17.515Z,997.54
2017-12-01T02:12:17.465Z,997.58
2017-12-01T02:13:17.459Z,997.57
2017-12-01T02:14:17.458Z,997.63
2017-12-01T02:15:17.444Z,997.61
2017-12-01T02:16:17.437Z,997.61
2017-12-01T02:17:17.431Z,997.59
2017-12-01T02:18:17.423Z,997.60
2017-12-01T02:19:17.416Z,997.60
2017-12-01T02:20:17.408Z,997.65
2017-12-01T02:21:17.401Z,997.63
2017-12-01T02:22:17.394Z,997.63
2017-12-01T02:23:17.387Z,997.69
2017-12-01T02:24:17.379Z,997.66
2017-12-01T02:25:17.372Z,997.72
2017-12-01T02:26:17.364Z,997.71
2017-12-01T02:27:17.357Z,997.70
2017-12-01T02:28:17.351Z,997.70
2017-12-01T02:29:17.344Z,997.75
2017-12-01T02:30:17.335Z,997.72
2017-12-01T02:31:17.328Z,997.73
2017-12-01T02:32:17.320Z,997.72
2017-12-01T02:33:17.316Z,997.78
2017-12-01T02:34:17.306Z,997.78
2017-12-01T02:35:17.301Z,997.80
2017-12-01T02:36:17.293Z,997.81
2017-12-01T02:37:17.284Z,997.81
2017-12-01T02:38:17.278Z,997.86
2017-12-01T02:39:17.272Z,997.81
2017-12-01T02:40:17.262Z,997.80
2017-12-01T02:41:17.255Z,997.83
2017-12-01T02:42:17.246Z,997.83
2017-12-01T02:43:17.243Z,997.87
2017-12-01T02:44:17.234Z,997.86
2017-12-01T02:45:17.225Z,997.90
2017-12-01T02:46:17.223Z,997.93
2017-12-01T02:47:17.211Z,997.91
2017-12-01T02:48:17.205Z,997.94
2017-12-01T02:49:17.196Z,998.01
2017-12-01T02:50:17.192Z,997.99
2017-12-01T02:51:17.182Z,997.99
2017-12-01T02:52:17.174Z,998.00
2017-12-01T02:53:17.172Z,998.03
2017-12-01T02:54:17.160Z,998.03
2017-12-01T02:55:17.155Z,998.09
2017-12-01T02:56:17.146Z,998.09
2017-12-01T02:57:17.140Z,998.18
2017-12-01T02:58:17.132Z,998.17
2017-12-01T02:59:17.126Z,998.15
2017-12-01T03:00:17.116Z,998.16
2017-12-01T03:01:17.110Z,998.16
2017-12-01T03:02:17.102Z,998.21
2017-12-01T03:03:17.095Z,998.22
2017-12-01T03:04:17.087Z,998.25
2017-12-01T03:05:17.079Z,998.23
2017-12-01T03:06:17.074Z,998.23
2017-12-01T03:07:17.067Z,998.26
2017-12-01T03:08:17.058Z,998.31
2017-12-01T03:09:17.051Z,998.27
2017-12-01T03:10:17.044Z,998.26
2017-12-01T03:11:17.035Z,998.24
2017-12-01T03:12:17.029Z,998.26
2017-12-01T03:13:17.021Z,998.27
2017-12-01T03:14:17.014Z,998.26
2017-12-01T03:15:17.009Z,998.21
2017-12-01T03:16:17.007Z,998.25
2017-12-01T03:17:16.992Z,998.23
2017-12-01T03:18:16.986Z,998.23
2017-12-01T03:19:16.980Z,998.25
2017-12-01T03:20:16.970Z,998.31
2017-12-01T03:21:16.963Z,998.30
2017-12-01T03:22:16.955Z,998.29
2017-12-01T03:23:16.948Z,998.31
2017-12-01T03:24:16.942Z,998.32
2017-12-01T03:25:16.936Z,998.32
2017-12-01T03:26:16.927Z,998.32
2017-12-01T03:27:16.955Z,998.31
2017-12-01T03:28:16.910Z,998.32
2017-12-01T03:29:16.903Z,998.36
2017-12-01T03:30:16.900Z,998.41
2017-12-01T03:31:16.889Z,998.41
2017-12-01T03:32:16.881Z,998.45
2017-12-01T03:33:16.873Z,998.42
2017-12-01T03:34:16.866Z,998.46
2017-12-01T03:35:16.859Z,998.46
2017-12-01T03:36:16.851Z,998.41
2017-12-01T03:37:16.844Z,998.46
2017-12-01T03:38:16.836Z,998.44
2017-12-01T03:39:16.830Z,998.46
2017-12-01T03:40:16.821Z,998.48
2017-12-01T03:41:16.814Z,998.52
2017-12-01T03:42:16.806Z,998.54
2017-12-01T03:43:16.801Z,998.55
2017-12-01T03:44:16.791Z,998.52
2017-12-01T03:45:16.785Z,998.56
2017-12-01T03:46:16.776Z,998.59
2017-12-01T03:47:16.771Z,998.59
2017-12-01T03:48:16.762Z,998.61
2017-12-01T03:49:16.756Z,998.67
2017-12-01T03:50:16.747Z,998.69
2017-12-01T03:51:16.741Z,998.70
2017-12-01T03:52:16.731Z,998.72
2017-12-01T03:53:16.725Z,998.74
2017-12-01T03:54:16.724Z,998.71
2017-12-01T03:55:16.710Z,998.71
2017-12-01T03:56:16.702Z,998.76
2017-12-01T03:57:16.696Z,998.84
2017-12-01T03:58:16.689Z,998.86
2017-12-01T03:59:16.681Z,998.91
2017-12-01T04:00:16.673Z,998.91
2017-12-01T04:01:16.665Z,998.93
2017-12-01T04:02:16.658Z,998.96
2017-12-01T04:03:16.652Z,998.97
2017-12-01T04:04:16.648Z,998.97
2017-12-01T04:05:16.638Z,998.99
2017-12-01T04:06:16.628Z,999.00
2017-12-01T04:07:16.625Z,999.00
2017-12-01T04:08:16.614Z,999.02
2017-12-01T04:09:16.607Z,999.07
2017-12-01T04:10:16.602Z,999.10
2017-12-01T04:11:16.593Z,999.14
2017-12-01T04:12:16.585Z,999.16
2017-12-01T04:13:16.578Z,999.15
2017-12-01T04:14:16.572Z,999.16
2017-12-01T04:15:16.565Z,999.16
2017-12-01T04:16:16.557Z,999.19
2017-12-01T04:17:16.549Z,999.16
2017-12-01T04:18:16.541Z,999.21
2017-12-01T04:19:16.534Z,999.23
2017-12-01T04:20:16.527Z,999.24
2017-12-01T04:21:16.520Z,999.23
2017-12-01T04:22:16.512Z,999.24
2017-12-01T04:23:16.504Z,999.23
2017-12-01T04:24:16.496Z,999.25
2017-12-01T04:25:16.490Z,999.27
2017-12-01T04:26:16.482Z,999.35
2017-12-01T04:27:16.474Z,999.33
2017-12-01T04:28:16.469Z,999.34
2017-12-01T04:29:16.460Z,999.38
2017-12-01T04:30:16.455Z,999.46
2017-12-01T04:31:16.447Z,999.43
2017-12-01T04:32:16.436Z,999.48
2017-12-01T04:33:16.430Z,999.48
2017-12-01T04:34:16.423Z,999.49
2017-12-01T04:35:16.415Z,999.53
2017-12-01T04:36:16.408Z,999.51
2017-12-01T04:37:16.401Z,999.55
2017-12-01T04:38:16.394Z,999.54
2017-12-01T04:39:16.386Z,999.60
2017-12-01T04:40:16.378Z,999.60
2017-12-01T04:41:16.369Z,999.68
2017-12-01T04:42:16.380Z,999.66
2017-12-01T04:43:16.357Z,999.66
2017-12-01T04:44:16.347Z,999.69
2017-12-01T04:45:16.340Z,999.75
2017-12-01T04:46:16.333Z,999.80
2017-12-01T04:47:16.327Z,999.80
2017-12-01T04:48:16.317Z,999.80
2017-12-01T04:49:16.310Z,999.80
2017-12-01T04:50:16.302Z,999.83
2017-12-01T04:51:16.297Z,999.86
2017-12-01T04:52:16.287Z,999.87
2017-12-01T04:53:16.279Z,999.88
2017-12-01T04:54:16.275Z,999.94
2017-12-01T04:55:16.265Z,999.89
2017-12-01T04:56:16.258Z,999.91
2017-12-01T04:57:16.250Z,999.94
2017-12-01T04:58:16.243Z,999.97
2017-12-01T04:59:16.235Z,999.96
2017-12-01T05:00:16.228Z,999.97
2017-12-01T05:01:16.221Z,999.98
2017-12-01T05:02:16.212Z,999.99
2017-12-01T05:03:16.206Z,999.97
2017-12-01T05:04:16.197Z,999.99
2017-12-01T05:05:16.188Z,999.96
2017-12-01T05:06:16.182Z,999.96
2017-12-01T05:07:16.173Z,1000.01
2017-12-01T05:08:16.165Z,1000.03
2017-12-01T05:09:16.159Z,999.98
2017-12-01T05:10:16.152Z,1000.01
2017-12-01T05:11:16.144Z,1000.03
2017-12-01T05:12:16.137Z,1000.07
2017-12-01T05:13:16.128Z,1000.09
2017-12-01T05:14:16.122Z,1000.11
2017-12-01T05:15:16.114Z,1000.11
2017-12-01T05:16:16.106Z,1000.14
2017-12-01T05:17:16.098Z,1000.15
2017-12-01T05:18:16.091Z,1000.15
2017-12-01T05:19:16.085Z,1000.15
2017-12-01T05:20:16.076Z,1000.15
2017-12-01T05:21:16.067Z,1000.17
2017-12-01T05:22:16.060Z,1000.20
2017-12-01T05:23:16.054Z,1000.19
2017-12-01T05:24:16.046Z,1000.26
2017-12-01T05:25:16.037Z,1000.25
2017-12-01T05:26:16.030Z,1000.26
2017-12-01T05:27:16.025Z,1000.30
2017-12-01T05:28:16.015Z,1000.31
2017-12-01T05:29:16.007Z,1000.29
2017-12-01T05:30:16.000Z,1000.32
2017-12-01T05:31:15.992Z,1000.33
2017-12-01T05:32:15.984Z,1000.39
2017-12-01T05:33:15.977Z,1000.37
2017-12-01T05:34:15.970Z,1000.42
2017-12-01T05:35:15.963Z,1000.43
2017-12-01T05:36:15.953Z,1000.46
2017-12-01T05:37:15.946Z,1000.41
2017-12-01T05:38:15.942Z,1000.47
2017-12-01T05:39:15.932Z,1000.45
2017-12-01T05:40:15.923Z,1000.51
2017-12-01T05:41:15.916Z,1000.47
2017-12-01T05:42:15.926Z,1000.55
2017-12-01T05:43:15.901Z,1000.52
2017-12-01T05:44:15.892Z,1000.60
2017-12-01T05:45:15.885Z,1000.57
2017-12-01T05:46:15.878Z,1000.56
2017-12-01T05:47:15.870Z,1000.59
2017-12-01T05:48:15.861Z,1000.61
2017-12-01T05:49:15.854Z,1000.65
2017-12-01T05:50:15.847Z,1000.63
2017-12-01T05:51:15.841Z,1000.67
2017-12-01T05:52:15.832Z,1000.69
2017-12-01T05:53:15.823Z,1000.69
2017-12-01T05:54:15.817Z,1000.69
2017-12-01T05:55:15.810Z,1000.74
2017-12-01T05:56:15.802Z,1000.73
2017-12-01T05:57:15.793Z,1000.76
2017-12-01T05:58:15.786Z,1000.77
2017-12-01T05:59:15.778Z,1000.77
2017-12-01T06:00:15.772Z,1000.75
2017-12-01T06:01:15.762Z,1000.80
2017-12-01T06:02:15.755Z,1000.79
2017-12-01T06:03:15.753Z,1000.82
2017-12-01T06:04:15.740Z,1000.82
2017-12-01T06:05:15.733Z,1000.83
2017-12-01T06:06:15.725Z,1000.80
2017-12-01T06:07:15.718Z,1000.86
2017-12-01T06:08:15.709Z,1000.84
2017-12-01T06:09:15.702Z,1000.88
2017-12-01T06:10:15.695Z,1000.84
2017-12-01T06:11:15.692Z,1000.85
2017-12-01T06:12:15.681Z,1000.85
2017-12-01T06:13:15.672Z,1000.91
2017-12-01T06:14:15.666Z,1000.90
2017-12-01T06:15:15.658Z,1000.94
2017-12-01T06:16:15.650Z,1000.97
2017-12-01T06:17:15.643Z,1000.96
2017-12-01T06:18:15.636Z,1001.00
2017-12-01T06:19:15.628Z,1001.01
2017-12-01T06:20:15.619Z,1001.00
2017-12-01T06:21:15.612Z,1001.03
2017-12-01T06:22:15.605Z,1001.03
2017-12-01T06:23:15.598Z,1001.07
2017-12-01T06:24:15.590Z,1001.09
2017-12-01T06:25:15.581Z,1001.10
2017-12-01T06:26:15.574Z,1001.11
2017-12-01T06:27:15.568Z,1001.13
2017-12-01T06:28:15.559Z,1001.13
2017-12-01T06:29:15.553Z,1001.16
2017-12-01T06:30:15.545Z,1001.19
2017-12-01T06:31:15.538Z,1001.17
2017-12-01T06:32:15.530Z,1001.20
2017-12-01T06:33:15.522Z,1001.23
2017-12-01T06:34:15.516Z,1001.26
2017-12-01T06:35:15.508Z,1001.24
2017-12-01T06:36:15.500Z,1001.28
2017-12-01T06:37:15.493Z,1001.33
2017-12-01T06:38:15.486Z,1001.33
2017-12-01T06:39:15.478Z,1001.37
2017-12-01T06:40:15.469Z,1001.37
2017-12-01T06:41:15.461Z,1001.38
2017-12-01T06:42:15.456Z,1001.41
2017-12-01T06:43:15.447Z,1001.43
2017-12-01T06:44:15.439Z,1001.39
2017-12-01T06:45:15.431Z,1001.41
2017-12-01T06:46:15.424Z,1001.44
2017-12-01T06:47:15.417Z,1001.49
2017-12-01T06:48:15.409Z,1001.47
2017-12-01T06:49:15.401Z,1001.47
2017-12-01T06:50:15.394Z,1001.50
2017-12-01T06:51:15.387Z,1001.56
2017-12-01T06:52:15.381Z,1001.57
2017-12-01T06:53:15.371Z,1001.61
2017-12-01T06:54:15.364Z,1001.61
2017-12-01T06:55:15.358Z,1001.57
2017-12-01T06:56:15.350Z,1001.64
2017-12-01T06:57:15.340Z,1001.67
2017-12-01T06:58:15.334Z,1001.68
2017-12-01T06:59:15.327Z,1001.70
2017-12-01T07:00:15.318Z,1001.72
2017-12-01T07:01:15.310Z,1001.71
2017-12-01T07:02:15.301Z,1001.75
2017-12-01T07:03:15.295Z,1001.76
2017-12-01T07:04:15.286Z,1001.78
2017-12-01T07:05:15.278Z,1001.80
2017-12-01T07:06:15.271Z,1001.79
2017-12-01T07:07:15.263Z,1001.82
2017-12-01T07:08:15.258Z,1001.84
2017-12-01T07:09:15.248Z,1001.89
2017-12-01T07:10:15.242Z,1001.86
2017-12-01T07:11:15.233Z,1001.92
2017-12-01T07:12:15.225Z,1001.96
2017-12-01T07:13:15.217Z,1001.98
2017-12-01T07:14:15.210Z,1001.97
2017-12-01T07:15:15.203Z,1001.99
2017-12-01T07:16:15.206Z,1002.02
2017-12-01T07:17:15.188Z,1002.02
2017-12-01T07:18:15.180Z,1002.02
2017-12-01T07:19:15.173Z,1002.06
2017-12-01T07:20:15.166Z,1002.10
2017-12-01T07:21:15.156Z,1002.07
2017-12-01T07:22:15.148Z,1002.08
2017-12-01T07:23:15.140Z,1002.11
2017-12-01T07:24:15.132Z,1002.13
2017-12-01T07:25:15.124Z,1002.12
2017-12-01T07:26:15.118Z,1002.13
2017-12-01T07:27:15.110Z,1002.11
2017-12-01T07:28:15.102Z,1002.16
2017-12-01T07:29:15.101Z,1002.14
2017-12-01T07:30:15.087Z,1002.21
2017-12-01T07:31:15.080Z,1002.21
2017-12-01T07:32:15.075Z,1002.21
2017-12-01T07:33:15.063Z,1002.28
2017-12-01T07:34:15.056Z,1002.27
2017-12-01T07:35:15.049Z,1002.31
2017-12-01T07:36:15.042Z,1002.27
2017-12-01T07:37:15.032Z,1002.30
2017-12-01T07:38:15.026Z,1002.34
2017-12-01T07:39:15.018Z,1002.37
2017-12-01T07:40:15.010Z,1002.38
2017-12-01T07:41:15.002Z,1002.40
2017-12-01T07:42:14.994Z,1002.43
2017-12-01T07:43:14.987Z,1002.46
2017-12-01T07:44:14.980Z,1002.43
2017-12-01T07:45:14.972Z,1002.49
2017-12-01T07:46:14.963Z,1002.50
2017-12-01T07:47:14.957Z,1002.54
2017-12-01T07:48:14.948Z,1002.53
2017-12-01T07:49:14.940Z,1002.56
2017-12-01T07:50:14.933Z,1002.57
2017-12-01T07:51:14.925Z,1002.63
2017-12-01T07:52:14.923Z,1002.67
2017-12-01T07:53:14.911Z,1002.64
2017-12-01T07:54:14.902Z,1002.66
2017-12-01T07:55:14.895Z,1002.70
2017-12-01T07:56:14.886Z,1002.72
2017-12-01T07:57:14.878Z,1002.73
2017-12-01T07:58:14.870Z,1002.74
2017-12-01T07:59:14.865Z,1002.71
2017-12-01T08:00:14.860Z,1002.75
2017-12-01T08:01:14.848Z,1002.78
2017-12-01T08:02:14.867Z,1002.77
2017-12-01T08:03:14.834Z,1002.78
2017-12-01T08:04:14.829Z,1002.80
2017-12-01T08:05:14.818Z,1002.79
2017-12-01T08:06:14.810Z,1002.82
2017-12-01T08:07:14.803Z,1002.84
2017-12-01T08:08:14.794Z,1002.90
2017-12-01T08:09:14.789Z,1002.89
2017-12-01T08:10:14.781Z,1002.91
2017-12-01T08:11:14.779Z,1002.89
2017-12-01T08:12:14.765Z,1002.94
2017-12-01T08:13:14.757Z,1002.92
2017-12-01T08:14:14.749Z,1002.93
2017-12-01T08:15:14.743Z,1003.00
2017-12-01T08:16:14.735Z,1003.03
2017-12-01T08:17:14.726Z,1003.05
2017-12-01T08:18:14.719Z,1003.02
2017-12-01T08:19:14.712Z,1003.05
2017-12-01T08:20:14.704Z,1003.04
2017-12-01T08:21:14.698Z,1003.05
2017-12-01T08:22:14.690Z,1003.12
2017-12-01T08:23:14.682Z,1003.12
2017-12-01T08:24:14.674Z,1003.15
2017-12-01T08:25:14.667Z,1003.16
2017-12-01T08:26:14.661Z,1003.12
2017-12-01T08:27:14.653Z,1003.12
2017-12-01T08:28:14.644Z,1003.18
2017-12-01T08:29:14.641Z,1003.18
2017-12-01T08:30:14.631Z,1003.16
2017-12-01T08:31:14.624Z,1003.21
2017-12-01T08:32:14.615Z,1003.19
2017-12-01T08:33:14.608Z,1003.28
2017-12-01T08:34:14.601Z,1003.26
2017-12-01T08:35:14.594Z,1003.27
2017-12-01T08:36:14.585Z,1003.30
2017-12-01T08:37:14.578Z,1003.34
2017-12-01T08:38:14.572Z,1003.36
2017-12-01T08:39:14.567Z,1003.36
2017-12-01T08:40:14.559Z,1003.39
2017-12-01T08:41:14.549Z,1003.39
2017-12-01T08:42:14.543Z,1003.44
2017-12-01T08:43:14.535Z,1003.40
2017-12-01T08:44:14.527Z,1003.39
2017-12-01T08:45:14.522Z,1003.46
2017-12-01T08:46:14.513Z,1003.42
2017-12-01T08:47:14.508Z,1003.51
2017-12-01T08:48:14.499Z,1003.50
2017-12-01T08:49:14.491Z,1003.56
2017-12-01T08:50:14.485Z,1003.54
2017-12-01T08:51:14.479Z,1003.60
2017-12-01T08:52:14.471Z,1003.56
2017-12-01T08:53:14.464Z,1003.58
2017-12-01T08:54:14.458Z,1003.58
2017-12-01T08:55:14.451Z,1003.61
2017-12-01T08:56:14.442Z,1003.58
2017-12-01T08:57:14.435Z,1003.61
2017-12-01T08:58:14.429Z,1003.60
2017-12-01T08:59:14.421Z,1003.64
2017-12-01T09:00:14.413Z,1003.68
2017-12-01T09:01:14.405Z,1003.69
2017-12-01T09:02:14.400Z,1003.74
2017-12-01T09:03:14.395Z,1003.75
2017-12-01T09:04:14.386Z,1003.77
2017-12-01T09:05:14.377Z,1003.78
2017-12-01T09:06:14.370Z,1003.81
2017-12-01T09:07:14.363Z,1003.79
2017-12-01T09:08:14.354Z,1003.82
2017-12-01T09:09:14.347Z,1003.87
2017-12-01T09:10:14.340Z,1003.87
2017-12-01T09:11:14.333Z,1003.87
2017-12-01T09:12:14.324Z,1003.90
2017-12-01T09:13:14.319Z,1003.89
2017-12-01T09:14:14.312Z,1003.92
2017-12-01T09:15:14.303Z,1003.98
2017-12-01T09:16:14.296Z,1003.99
2017-12-01T09:17:14.289Z,1003.99
2017-12-01T09:18:14.282Z,1004.03
2017-12-01T09:19:14.275Z,1004.06
2017-12-01T09:20:14.274Z,1004.11
2017-12-01T09:21:14.260Z,1004.11
2017-12-01T09:22:14.252Z,1004.11
2017-12-01T09:23:14.247Z,1004.20
2017-12-01T09:24:14.237Z,1004.16
2017-12-01T09:25:14.229Z,1004.17
2017-12-01T09:26:14.222Z,1004.21
2017-12-01T09:27:14.216Z,1004.20
2017-12-01T09:28:14.209Z,1004.19
2017-12-01T09:29:14.201Z,1004.24
2017-12-01T09:30:14.197Z,1004.26
2017-12-01T09:31:14.186Z,1004.30
2017-12-01T09:32:14.184Z,1004.35
2017-12-01T09:33:14.171Z,1004.37
2017-12-01T09:34:14.164Z,1004.37
2017-12-01T09:35:14.157Z,1004.36
2017-12-01T09:36:14.149Z,1004.36
2017-12-01T09:37:14.143Z,1004.38
2017-12-01T09:38:14.135Z,1004.39
2017-12-01T09:39:14.128Z,1004.41
2017-12-01T09:40:14.120Z,1004.45
2017-12-01T09:41:14.114Z,1004.40
2017-12-01T09:42:14.106Z,1004.45
2017-12-01T09:43:14.099Z,1004.45
2017-12-01T09:44:14.091Z,1004.45
2017-12-01T09:45:14.085Z,1004.44
2017-12-01T09:46:14.078Z,1004.47
2017-12-01T09:47:14.071Z,1004.49
2017-12-01T09:48:14.064Z,1004.52
2017-12-01T09:49:14.057Z,1004.52
2017-12-01T09:50:14.051Z,1004.50
2017-12-01T09:51:14.045Z,1004.51
2017-12-01T09:52:14.036Z,1004.53
2017-12-01T09:53:14.029Z,1004.53
2017-12-01T09:54:14.079Z,1004.53
2017-12-01T09:55:14.017Z,1004.52
2017-12-01T09:56:14.009Z,1004.55
2017-12-01T09:57:14.003Z,1004.54
2017-12-01T09:58:13.996Z,1004.59
2017-12-01T09:59:13.990Z,1004.55
2017-12-01T10:00:13.982Z,1004.57
2017-12-01T10:01:13.975Z,1004.60
2017-12-01T10:02:13.969Z,1004.58
2017-12-01T10:03:13.962Z,1004.65
2017-12-01T10:04:13.958Z,1004.66
2017-12-01T10:05:13.948Z,1004.67
2017-12-01T10:06:13.942Z,1004.70
2017-12-01T10:07:13.935Z,1004.65
2017-12-01T10:08:13.928Z,1004.69
2017-12-01T10:09:13.922Z,1004.73
2017-12-01T10:10:13.914Z,1004.74
2017-12-01T10:11:13.907Z,1004.76
2017-12-01T10:12:13.901Z,1004.78
2017-12-01T10:13:13.896Z,1004.77
2017-12-01T10:14:13.887Z,1004.80
2017-12-01T10:15:13.880Z,1004.82
2017-12-01T10:16:13.873Z,1004.84
2017-12-01T10:17:13.866Z,1004.85
2017-12-01T10:18:13.861Z,1004.86
2017-12-01T10:19:13.856Z,1004.86
2017-12-01T10:20:13.846Z,1004.90
2017-12-01T10:21:13.840Z,1004.89
2017-12-01T10:22:13.833Z,1004.88
2017-12-01T10:23:13.827Z,1004.90
2017-12-01T10:24:13.819Z,1004.90
2017-12-01T10:25:13.816Z,1004.95
2017-12-01T10:26:13.806Z,1004.94
2017-12-01T10:27:13.799Z,1004.92
2017-12-01T10:28:13.793Z,1004.96
2017-12-01T10:29:13.787Z,1004.95
2017-12-01T10:30:13.780Z,1004.98
2017-12-01T10:31:13.773Z,1005.00
2017-12-01T10:32:13.767Z,1005.02
2017-12-01T10:33:13.762Z,1004.99
2017-12-01T10:34:13.753Z,1004.95
2017-12-01T10:35:13.747Z,1004.97
2017-12-01T10:36:13.739Z,1004.97
2017-12-01T10:37:13.737Z,1004.95
2017-12-01T10:38:13.726Z,1004.97
2017-12-01T10:39:13.721Z,1004.94
2017-12-01T10:40:13.715Z,1004.98
2017-12-01T10:41:13.708Z,1004.99
2017-12-01T10:42:13.702Z,1004.98
2017-12-01T10:43:13.696Z,1005.00
2017-12-01T10:44:13.688Z,1004.97
2017-12-01T10:45:13.682Z,1004.96
2017-12-01T10:46:13.678Z,1004.92
2017-12-01T10:47:13.673Z,1004.95
2017-12-01T10:48:13.663Z,1004.96
2017-12-01T10:49:13.658Z,1004.96
2017-12-01T10:50:13.651Z,1004.99
2017-12-01T10:51:13.645Z,1004.98
2017-12-01T10:52:13.638Z,1004.96
2017-12-01T10:53:13.631Z,1004.99
2017-12-01T10:54:13.625Z,1005.00
2017-12-01T10:55:13.620Z,1005.06
2017-12-01T10:56:13.615Z,1005.05
2017-12-01T10:57:13.607Z,1005.03
2017-12-01T10:58:13.602Z,1005.07
2017-12-01T10:59:13.596Z,1005.03
2017-12-01T11:00:13.590Z,1005.04
2017-12-01T11:01:13.583Z,1005.01
2017-12-01T11:02:13.577Z,1005.06
2017-12-01T11:03:13.570Z,1005.03
2017-12-01T11:04:13.565Z,1005.05
2017-12-01T11:05:13.558Z,1005.06
2017-12-01T11:06:13.552Z,1005.07
2017-12-01T11:07:13.547Z,1005.10
2017-12-01T11:08:13.539Z,1005.07
2017-12-01T11:09:13.534Z,1005.13
2017-12-01T11:10:13.527Z,1005.16
2017-12-01T11:11:13.522Z,1005.16
2017-12-01T11:12:13.515Z,1005.17
2017-12-01T11:13:13.509Z,1005.18
2017-12-01T11:14:13.504Z,1005.18
2017-12-01T11:15:13.497Z,1005.16
2017-12-01T11:16:13.491Z,1005.14
2017-12-01T11:17:13.486Z,1005.22
2017-12-01T11:18:13.479Z,1005.15
2017-12-01T11:19:13.474Z,1005.14
2017-12-01T11:20:13.468Z,1005.18
2017-12-01T11:21:13.463Z,1005.21
2017-12-01T11:22:13.457Z,1005.22
2017-12-01T11:23:13.452Z,1005.21
2017-12-01T11:24:13.445Z,1005.22
2017-12-01T11:25:13.438Z,1005.26
2017-12-01T11:26:13.433Z,1005.26
2017-12-01T11:27:13.426Z,1005.26
2017-12-01T11:28:13.420Z,1005.27
2017-12-01T11:29:13.414Z,1005.27
2017-12-01T11:30:13.409Z,1005.27
2017-12-01T11:31:13.404Z,1005.27
2017-12-01T11:32:13.396Z,1005.33
2017-12-01T11:33:13.391Z,1005.31
2017-12-01T11:34:13.384Z,1005.30
2017-12-01T11:35:13.377Z,1005.33
2017-12-01T11:36:13.372Z,1005.32
2017-12-01T11:37:13.366Z,1005.35
2017-12-01T11:38:13.360Z,1005.37
2017-12-01T11:39:13.355Z,1005.39
2017-12-01T11:40:13.347Z,1005.38
2017-12-01T11:41:13.342Z,1005.38
2017-12-01T11:42:13.336Z,1005.44
2017-12-01T11:43:13.330Z,1005.44
2017-12-01T11:44:13.327Z,1005.40
2017-12-01T11:45:13.320Z,1005.40
2017-12-01T11:46:13.313Z,1005.47
2017-12-01T11:47:13.307Z,1005.48
2017-12-01T11:48:13.300Z,1005.51
2017-12-01T11:49:13.295Z,1005.56
2017-12-01T11:50:13.291Z,1005.54
2017-12-01T11:51:13.282Z,1005.58
2017-12-01T11:52:13.276Z,1005.60
2017-12-01T11:53:13.272Z,1005.56
2017-12-01T11:54:13.266Z,1005.59
2017-12-01T11:55:13.260Z,1005.57
2017-12-01T11:56:13.255Z,1005.59
2017-12-01T11:57:13.246Z,1005.57
2017-12-01T11:58:13.242Z,1005.60
2017-12-01T11:59:13.234Z,1005.56
2017-12-01T12:00:13.228Z,1005.59
2017-12-01T12:01:13.222Z,1005.59
2017-12-01T12:02:13.216Z,1005.60
2017-12-01T12:03:13.211Z,1005.61
2017-12-01T12:04:13.204Z,1005.61
2017-12-01T12:05:13.199Z,1005.65
2017-12-01T12:06:13.192Z,1005.67
2017-12-01T12:07:13.186Z,1005.67
2017-12-01T12:08:13.178Z,1005.72
2017-12-01T12:09:13.209Z,1005.68
2017-12-01T12:10:13.168Z,1005.75
2017-12-01T12:11:13.163Z,1005.72
2017-12-01T12:12:13.156Z,1005.79
2017-12-01T12:13:13.150Z,1005.78
2017-12-01T12:14:13.144Z,1005.80
2017-12-01T12:15:13.139Z,1005.77